createdAt,value
2018-04-22T00:01:25.353Z,84.90
2018-04-22T00:03:53.165Z,84.80
2018-04-22T00:06:21.006Z,84.00
2018-04-22T00:08:48.793Z,84.60
2018-04-22T00:11:16.583Z,86.00
2018-04-22T00:13:44.430Z,86.80
2018-04-22T00:16:12.310Z,86.70
2018-04-22T00:18:40.110Z,86.20
2018-04-22T00:21:08.685Z,86.60
2018-04-22T00:23:37.266Z,86.40
2018-04-22T00:26:05.886Z,86.30
2018-04-22T00:28:33.713Z,86.30
2018-04-22T00:31:02.300Z,87.10
2018-04-22T00:33:30.173Z,86.90
2018-04-22T00:35:58.002Z,87.60
2018-04-22T00:38:25.816Z,87.70
2018-04-22T00:40:53.570Z,88.70
2018-04-22T00:43:22.174Z,89.10
2018-04-22T00:45:49.971Z,89.00
2018-04-22T00:48:17.737Z,89.20
2018-04-22T00:50:45.609Z,89.10
2018-04-22T00:53:13.482Z,89.20
2018-04-22T00:55:41.332Z,89.50
2018-04-22T00:58:09.146Z,90.20
2018-04-22T01:00:37.799Z,90.70
2018-04-22T01:03:05.614Z,90.70
2018-04-22T01:05:34.001Z,90.70
2018-04-22T01:08:01.814Z,90.80
2018-04-22T01:10:29.585Z,90.60
2018-04-22T01:12:57.342Z,90.20
2018-04-22T01:15:25.197Z,90.20
2018-04-22T01:17:53.810Z,90.10
2018-04-22T01:20:21.683Z,90.10
2018-04-22T01:22:50.433Z,90.40
2018-04-22T01:25:18.285Z,90.30
2018-04-22T01:27:46.134Z,90.70
2018-04-22T01:30:13.937Z,90.70
2018-04-22T01:32:41.732Z,91.70
2018-04-22T01:35:09.588Z,91.80
2018-04-22T01:37:37.493Z,92.40
2018-04-22T01:40:05.296Z,92.10
2018-04-22T01:42:33.141Z,92.30
2018-04-22T01:45:00.967Z,93.60
2018-04-22T01:47:29.545Z,93.20
2018-04-22T01:49:57.389Z,93.10
2018-04-22T01:52:25.216Z,93.10
2018-04-22T01:54:52.943Z,93.70
2018-04-22T01:57:20.726Z,93.40
2018-04-22T01:59:49.293Z,93.60
2018-04-22T02:02:17.903Z,93.40
2018-04-22T02:04:45.764Z,93.30
2018-04-22T02:07:14.323Z,93.90
2018-04-22T02:09:42.135Z,93.90
2018-04-22T02:12:09.900Z,94.30
2018-04-22T02:14:37.821Z,94.50
2018-04-22T02:17:05.635Z,94.70
2018-04-22T02:19:33.447Z,95.00
2018-04-22T02:22:01.284Z,95.00
2018-04-22T02:24:29.067Z,94.90
2018-04-22T02:26:56.870Z,95.30
2018-04-22T02:29:25.449Z,95.40
2018-04-22T02:31:54.102Z,95.70
2018-04-22T02:34:21.914Z,95.70
2018-04-22T02:36:49.688Z,95.60
2018-04-22T02:39:17.515Z,95.50
2018-04-22T02:41:46.126Z,95.60
2018-04-22T02:44:13.949Z,95.60
2018-04-22T02:46:41.759Z,95.20
2018-04-22T02:49:09.565Z,95.40
2018-04-22T02:51:37.510Z,95.50
2018-04-22T02:54:05.301Z,95.40
2018-04-22T02:56:33.107Z,95.50
2018-04-22T02:59:00.971Z,95.80
2018-04-22T03:01:29.578Z,95.70
2018-04-22T03:03:57.407Z,95.80
2018-04-22T03:06:25.242Z,95.90
2018-04-22T03:08:53.020Z,96.40
2018-04-22T03:11:20.901Z,97.00
2018-04-22T03:13:48.731Z,97.30
2018-04-22T03:16:16.540Z,97.00
2018-04-22T03:18:44.482Z,96.80
2018-04-22T03:21:12.362Z,96.70
2018-04-22T03:23:40.187Z,96.60
2018-04-22T03:26:07.981Z,96.80
2018-04-22T03:28:35.813Z,96.90
2018-04-22T03:31:03.835Z,96.90
2018-04-22T03:33:31.642Z,96.80
2018-04-22T03:35:59.533Z,97.30
2018-04-22T03:38:27.401Z,97.10
2018-04-22T03:40:55.205Z,97.50
2018-04-22T03:43:23.808Z,97.80
2018-04-22T03:45:52.524Z,98.00
2018-04-22T03:48:20.347Z,98.00
2018-04-22T03:50:48.180Z,98.20
2018-04-22T03:53:16.001Z,98.20
2018-04-22T03:55:43.836Z,98.30
2018-04-22T03:58:11.663Z,98.70
2018-04-22T04:00:39.556Z,99.10
2018-04-22T04:03:07.398Z,99.40
2018-04-22T04:05:35.220Z,99.30
2018-04-22T04:08:03.815Z,99.20
2018-04-22T04:10:31.645Z,99.20
2018-04-22T04:12:59.453Z,99.50
2018-04-22T04:15:27.312Z,99.50
2018-04-22T04:21:22.553Z,99.20
2018-04-22T04:27:25.042Z,99.60
2018-04-22T04:29:52.961Z,99.50
2018-04-22T04:32:20.741Z,99.90
2018-04-22T04:34:48.615Z,99.90
2018-04-22T04:37:16.443Z,99.90
2018-04-22T04:39:44.223Z,99.90
2018-04-22T04:42:12.123Z,99.90
2018-04-22T04:44:40.676Z,99.90
2018-04-22T04:47:08.523Z,99.90
2018-04-22T04:49:36.381Z,99.90
2018-04-22T04:52:04.954Z,99.90
2018-04-22T04:54:32.879Z,99.90
2018-04-22T04:57:00.730Z,99.90
2018-04-22T04:59:28.614Z,99.90
2018-04-22T05:01:56.432Z,99.90
2018-04-22T05:04:24.435Z,99.90
2018-04-22T05:06:52.236Z,99.90
2018-04-22T05:09:20.793Z,99.90
2018-04-22T05:11:48.692Z,99.90
2018-04-22T05:14:17.312Z,99.90
2018-04-22T05:16:45.113Z,99.90
2018-04-22T05:19:13.123Z,99.90
2018-04-22T05:21:40.986Z,99.90
2018-04-22T05:24:08.811Z,99.90
2018-04-22T05:26:36.760Z,99.90
2018-04-22T05:29:04.581Z,99.90
2018-04-22T05:31:33.279Z,99.90
2018-04-22T05:34:01.090Z,99.90
2018-04-22T05:36:29.754Z,99.90
2018-04-22T05:38:57.717Z,99.90
2018-04-22T05:41:25.722Z,99.90
2018-04-22T05:43:53.619Z,99.90
2018-04-22T05:46:22.200Z,99.90
2018-04-22T05:48:50.803Z,99.90
2018-04-22T05:51:18.683Z,99.90
2018-04-22T05:53:46.508Z,99.90
2018-04-22T05:56:14.403Z,99.90
2018-04-22T05:58:42.321Z,99.90
2018-04-22T06:01:10.855Z,98.60
2018-04-22T06:03:39.286Z,98.90
2018-04-22T06:06:07.096Z,97.40
2018-04-22T06:08:34.962Z,96.60
2018-04-22T06:11:02.847Z,96.70
2018-04-22T06:13:31.507Z,96.70
2018-04-22T06:15:59.969Z,96.10
2018-04-22T06:18:30.890Z,95.20
2018-04-22T06:20:59.579Z,95.20
2018-04-22T06:23:28.701Z,94.20
2018-04-22T06:25:57.569Z,94.30
2018-04-22T06:28:26.184Z,93.10
2018-04-22T06:30:54.739Z,91.60
2018-04-22T06:33:25.287Z,91.20
2018-04-22T06:35:53.481Z,91.10
2018-04-22T06:38:22.250Z,91.70
2018-04-22T06:40:50.336Z,91.20
2018-04-22T06:43:18.907Z,90.50
2018-04-22T06:45:47.520Z,90.60
2018-04-22T06:48:15.338Z,90.60
2018-04-22T06:50:43.187Z,89.50
2018-04-22T06:53:11.019Z,87.50
2018-04-22T06:55:38.911Z,86.90
2018-04-22T06:58:06.727Z,86.10
2018-04-22T07:00:35.437Z,85.20
2018-04-22T07:03:03.291Z,85.20
2018-04-22T07:05:31.140Z,83.60
2018-04-22T07:07:59.745Z,82.00
2018-04-22T07:10:27.580Z,82.00
2018-04-22T07:12:55.418Z,79.80
2018-04-22T07:15:23.209Z,79.90
2018-04-22T07:17:51.174Z,83.50
2018-04-22T07:20:18.945Z,78.00
2018-04-22T07:22:46.830Z,76.30
2018-04-22T07:25:15.564Z,73.60
2018-04-22T07:27:43.392Z,73.40
2018-04-22T07:30:12.040Z,67.20
2018-04-22T07:32:40.704Z,69.70
2018-04-22T07:35:08.573Z,69.50
2018-04-22T07:37:36.459Z,66.20
2018-04-22T07:40:04.342Z,67.90
2018-04-22T07:42:32.222Z,68.20
2018-04-22T07:45:00.086Z,64.40
2018-04-22T07:47:31.887Z,63.50
2018-04-22T07:49:59.722Z,62.80
2018-04-22T07:52:27.552Z,61.20
2018-04-22T07:54:55.565Z,60.10
2018-04-22T07:57:24.212Z,61.60
2018-04-22T07:59:52.209Z,61.50
2018-04-22T08:02:20.853Z,56.40
2018-04-22T08:04:48.714Z,56.40
2018-04-22T08:07:16.548Z,54.60
2018-04-22T08:09:44.493Z,55.20
2018-04-22T08:12:13.116Z,55.20
2018-04-22T08:14:40.952Z,55.10
2018-04-22T08:17:09.551Z,55.60
2018-04-22T08:19:37.371Z,55.40
2018-04-22T08:22:05.211Z,52.70
2018-04-22T08:24:33.147Z,52.00
2018-04-22T08:27:01.062Z,52.00
2018-04-22T08:29:29.016Z,51.30
2018-04-22T08:31:57.087Z,51.90
2018-04-22T08:34:24.888Z,49.50
2018-04-22T08:36:52.759Z,49.40
2018-04-22T08:39:20.603Z,49.90
2018-04-22T08:41:48.511Z,48.20
2018-04-22T08:44:16.356Z,47.90
2018-04-22T08:46:44.299Z,47.90
2018-04-22T09:03:37.970Z,46.10
2018-04-22T09:06:05.885Z,46.00
2018-04-22T09:08:33.741Z,47.50
2018-04-22T09:11:02.426Z,44.40
2018-04-22T09:13:30.986Z,46.10
2018-04-22T09:15:58.842Z,46.50
2018-04-22T09:18:26.756Z,44.40
2018-04-22T09:20:55.280Z,43.10
2018-04-22T09:23:23.128Z,43.10
2018-04-22T09:25:51.035Z,44.40
2018-04-22T09:28:18.846Z,43.80
2018-04-22T09:30:46.808Z,43.00
2018-04-22T09:33:14.721Z,43.20
2018-04-22T09:35:43.700Z,42.80
2018-04-22T09:38:11.519Z,41.60
2018-04-22T09:40:40.168Z,39.00
2018-04-22T09:43:08.076Z,38.90
2018-04-22T09:45:35.896Z,39.40
2018-04-22T09:48:03.864Z,39.40
2018-04-22T09:50:31.758Z,39.50
2018-04-22T09:52:59.611Z,41.20
2018-04-22T09:55:27.624Z,39.70
2018-04-22T09:57:56.237Z,38.20
2018-04-22T10:00:29.876Z,38.20
2018-04-22T10:02:58.532Z,34.90
2018-04-22T10:05:26.503Z,34.90
2018-04-22T10:07:54.423Z,35.70
2018-04-22T10:10:23.009Z,34.30
2018-04-22T10:12:51.582Z,32.90
2018-04-22T10:15:20.286Z,34.10
2018-04-22T10:17:48.895Z,33.60
2018-04-22T10:20:16.917Z,33.60
2018-04-22T10:22:44.872Z,31.40
2018-04-22T10:25:12.642Z,32.10
2018-04-22T10:27:40.515Z,30.80
2018-04-22T10:30:08.451Z,31.60
2018-04-22T10:32:37.181Z,31.70
2018-04-22T10:35:05.831Z,32.00
2018-04-22T10:37:33.684Z,32.00
2018-04-22T10:40:01.693Z,32.00
2018-04-22T10:42:29.738Z,32.00
2018-04-22T10:44:57.679Z,31.00
2018-04-22T10:47:25.528Z,31.20
2018-04-22T10:49:53.423Z,32.30
2018-04-22T10:52:21.276Z,29.70
2018-04-22T10:54:49.124Z,29.70
2018-04-22T10:57:16.998Z,28.70
2018-04-22T10:59:44.870Z,26.60
2018-04-22T11:02:12.696Z,29.00
2018-04-22T11:04:40.611Z,28.90
2018-04-22T11:07:08.585Z,27.90
2018-04-22T11:09:36.368Z,28.50
2018-04-22T11:12:04.132Z,27.50
2018-04-22T11:14:31.988Z,27.00
2018-04-22T11:16:59.913Z,27.50
2018-04-22T11:19:28.561Z,30.00
2018-04-22T11:21:56.481Z,30.00
2018-04-22T11:24:25.094Z,27.30
2018-04-22T11:26:52.902Z,27.30
2018-04-22T11:29:20.799Z,28.10
2018-04-22T11:31:49.347Z,27.40
2018-04-22T11:34:17.133Z,27.40
2018-04-22T11:36:45.776Z,27.00
2018-04-22T11:39:13.627Z,26.90
2018-04-22T11:41:41.412Z,25.80
2018-04-22T11:44:09.367Z,26.60
2018-04-22T11:46:37.223Z,26.70
2018-04-22T11:49:05.017Z,27.50
2018-04-22T11:51:32.946Z,26.40
2018-04-22T11:54:00.765Z,26.20
2018-04-22T11:56:28.647Z,26.30
2018-04-22T11:58:56.589Z,25.70
2018-04-22T12:01:24.520Z,25.50
2018-04-22T12:03:52.374Z,26.40
2018-04-22T12:06:20.255Z,26.60
2018-04-22T12:08:48.167Z,26.30
2018-04-22T12:11:16.006Z,25.60
2018-04-22T12:13:43.916Z,25.40
2018-04-22T12:16:12.586Z,25.00
2018-04-22T12:18:40.527Z,25.00
2018-04-22T12:21:08.448Z,26.70
2018-04-22T12:23:37.079Z,25.70
2018-04-22T12:26:04.988Z,25.60
2018-04-22T12:28:32.882Z,26.40
2018-04-22T12:31:00.744Z,25.10
2018-04-22T12:33:29.279Z,25.50
2018-04-22T12:35:57.128Z,25.50
2018-04-22T12:38:25.060Z,24.90
2018-04-22T12:40:53.584Z,26.30
2018-04-22T12:43:21.453Z,26.30
2018-04-22T12:45:49.278Z,24.60
2018-04-22T12:48:17.807Z,25.30
2018-04-22T12:50:45.706Z,25.20
2018-04-22T12:53:13.585Z,26.70
2018-04-22T12:55:42.304Z,25.60
2018-04-22T12:58:10.188Z,25.60
2018-04-22T13:00:38.089Z,25.80
2018-04-22T13:03:05.977Z,23.90
2018-04-22T13:05:35.499Z,23.10
2018-04-22T13:08:03.342Z,23.10
2018-04-22T13:10:31.898Z,22.70
2018-04-22T13:12:59.851Z,22.70
2018-04-22T13:15:27.704Z,23.30
2018-04-22T13:17:56.360Z,23.70
2018-04-22T13:20:25.025Z,22.40
2018-04-22T13:22:52.868Z,22.40
2018-04-22T13:25:20.730Z,24.60
2018-04-22T13:27:48.602Z,23.10
2018-04-22T13:30:16.512Z,23.40
2018-04-22T13:32:45.041Z,24.80
2018-04-22T13:35:12.952Z,24.80
2018-04-22T13:37:41.541Z,23.50
2018-04-22T13:40:10.182Z,23.10
2018-04-22T13:42:38.164Z,23.10
2018-04-22T13:45:05.974Z,23.90
2018-04-22T13:47:33.898Z,23.00
2018-04-22T13:50:01.744Z,22.10
2018-04-22T13:52:29.557Z,22.90
2018-04-22T13:54:58.123Z,24.50
2018-04-22T13:57:26.019Z,24.50
2018-04-22T13:59:54.657Z,22.30
2018-04-22T14:02:22.571Z,22.30
2018-04-22T14:04:51.277Z,23.50
2018-04-22T14:07:19.107Z,23.40
2018-04-22T14:09:47.814Z,22.50
2018-04-22T14:12:16.471Z,23.90
2018-04-22T14:14:44.363Z,23.90
2018-04-22T14:17:13.032Z,22.50
2018-04-22T14:19:41.046Z,22.50
2018-04-22T14:22:09.094Z,24.40
2018-04-22T14:24:37.035Z,23.80
2018-04-22T14:27:04.918Z,24.20
2018-04-22T14:29:33.500Z,24.30
2018-04-22T14:32:02.181Z,25.20
2018-04-22T14:34:30.876Z,24.60
2018-04-22T14:36:58.705Z,24.70
2018-04-22T14:39:26.613Z,23.80
2018-04-22T14:41:54.753Z,22.80
2018-04-22T14:44:34.541Z,23.60
2018-04-22T14:47:02.451Z,23.30
2018-04-22T14:49:30.238Z,25.00
2018-04-22T14:51:58.217Z,24.00
2018-04-22T14:54:26.273Z,24.40
2018-04-22T14:56:54.122Z,23.80
2018-04-22T14:59:22.049Z,23.50
2018-04-22T15:01:49.985Z,24.20
2018-04-22T15:04:20.026Z,23.80
2018-04-22T15:06:48.700Z,22.40
2018-04-22T15:09:16.574Z,22.40
2018-04-22T15:11:45.168Z,22.60
2018-04-22T15:14:13.763Z,22.60
2018-04-22T15:16:41.621Z,22.60
2018-04-22T15:19:09.497Z,23.20
2018-04-22T15:21:37.312Z,22.90
2018-04-22T15:24:05.167Z,22.40
2018-04-22T15:26:33.046Z,22.20
2018-04-22T15:29:00.932Z,23.90
2018-04-22T15:31:28.759Z,22.60
2018-04-22T15:33:56.600Z,23.80
2018-04-22T15:36:24.423Z,23.40
2018-04-22T15:38:53.095Z,23.20
2018-04-22T15:41:20.972Z,23.20
2018-04-22T15:43:48.872Z,23.40
2018-04-22T15:46:17.552Z,22.80
2018-04-22T15:48:46.192Z,24.00
2018-04-22T15:51:14.749Z,24.30
2018-04-22T15:53:42.556Z,24.30
2018-04-22T15:56:10.453Z,25.20
2018-04-22T15:58:39.223Z,24.50
2018-04-22T16:01:07.084Z,24.50
2018-04-22T16:03:35.008Z,25.10
2018-04-22T16:06:02.865Z,24.10
2018-04-22T16:08:30.763Z,23.30
2018-04-22T16:10:58.650Z,23.40
2018-04-22T16:13:26.593Z,23.70
2018-04-22T16:15:54.523Z,23.80
2018-04-22T16:18:22.460Z,23.40
2018-04-22T16:20:50.523Z,24.40
2018-04-22T16:23:18.641Z,24.80
2018-04-22T16:25:46.632Z,25.00
2018-04-22T16:28:14.446Z,24.80
2018-04-22T16:30:42.587Z,24.50
2018-04-22T16:33:10.477Z,24.40
2018-04-22T16:35:38.355Z,24.70
2018-04-22T16:38:07.255Z,25.80
2018-04-22T16:40:36.064Z,25.50
2018-04-22T16:43:03.934Z,25.50
2018-04-22T16:45:31.807Z,25.20
2018-04-22T16:47:59.725Z,25.40
2018-04-22T16:50:27.623Z,25.80
2018-04-22T16:52:56.267Z,26.20
2018-04-22T16:55:24.143Z,26.20
2018-04-22T16:57:52.041Z,26.40
2018-04-22T17:00:19.931Z,26.50
2018-04-22T17:02:47.879Z,26.50
2018-04-22T17:05:16.481Z,27.30
2018-04-22T17:07:44.469Z,27.30
2018-04-22T17:10:12.403Z,27.60
2018-04-22T17:12:41.081Z,27.80
2018-04-22T17:15:09.829Z,27.70
2018-04-22T17:17:37.712Z,27.60
2018-04-22T17:20:05.513Z,28.30
2018-04-22T17:22:34.241Z,28.90
2018-04-22T17:25:02.109Z,28.90
2018-04-22T17:27:30.052Z,28.70
2018-04-22T17:29:58.003Z,29.00
2018-04-22T17:32:26.583Z,29.40
2018-04-22T17:34:54.387Z,29.30
2018-04-22T17:37:22.299Z,30.00
2018-04-22T17:39:50.944Z,30.50
2018-04-22T17:42:18.843Z,30.40
2018-04-22T17:44:46.857Z,31.60
2018-04-22T17:47:14.702Z,31.10
2018-04-22T17:49:43.303Z,31.40
2018-04-22T17:52:11.243Z,31.40
2018-04-22T17:54:39.073Z,31.90
2018-04-22T17:57:06.972Z,31.70
2018-04-22T17:59:35.674Z,32.80
2018-04-22T18:02:04.350Z,32.80
2018-04-22T18:04:33.070Z,32.90
2018-04-22T18:07:00.984Z,32.80
2018-04-22T18:09:28.885Z,33.30
2018-04-22T18:11:57.461Z,33.10
2018-04-22T18:14:26.169Z,33.00
2018-04-22T18:16:54.091Z,33.00
2018-04-22T18:19:22.077Z,34.10
2018-04-22T18:21:50.215Z,33.60
2018-04-22T18:24:18.073Z,33.80
2018-04-22T18:26:45.891Z,34.00
2018-04-22T18:29:15.408Z,33.20
2018-04-22T18:31:44.189Z,34.30
2018-04-22T18:34:12.117Z,34.20
2018-04-22T18:36:40.091Z,34.20
2018-04-22T18:39:08.294Z,34.00
2018-04-22T18:41:36.223Z,33.80
2018-04-22T18:44:04.336Z,34.00
2018-04-22T18:46:32.282Z,34.00
2018-04-22T18:49:00.116Z,34.40
2018-04-22T18:51:28.016Z,34.00
2018-04-22T18:53:55.941Z,34.90
2018-04-22T18:56:23.792Z,34.60
2018-04-22T18:58:52.468Z,35.30
2018-04-22T19:01:20.379Z,35.20
2018-04-22T19:03:48.233Z,35.70
2018-04-22T19:06:16.183Z,37.20
2018-04-22T19:08:44.771Z,37.20
2018-04-22T19:11:12.663Z,37.20
2018-04-22T19:13:40.588Z,38.20
2018-04-22T19:16:09.285Z,38.50
2018-04-22T19:18:37.898Z,38.60
2018-04-22T19:21:05.858Z,38.60
2018-04-22T19:23:33.806Z,38.10
2018-04-22T19:26:02.382Z,38.90
2018-04-22T19:28:31.099Z,39.90
2018-04-22T19:30:58.977Z,39.80
2018-04-22T19:33:26.865Z,39.70
2018-04-22T19:35:54.827Z,42.00
2018-04-22T19:38:22.652Z,41.50
2018-04-22T19:40:51.293Z,42.60
2018-04-22T19:43:19.242Z,42.60
2018-04-22T19:45:47.175Z,43.00
2018-04-22T19:48:15.777Z,42.60
2018-04-22T19:50:43.679Z,42.50
2018-04-22T19:53:11.571Z,43.10
2018-04-22T19:55:39.518Z,43.90
2018-04-22T19:58:07.423Z,43.90
2018-04-22T20:00:36.117Z,44.40
2018-04-22T20:03:03.932Z,45.30
2018-04-22T20:05:31.892Z,45.70
2018-04-22T20:07:59.809Z,46.70
2018-04-22T20:10:28.490Z,47.00
2018-04-22T20:12:57.120Z,46.70
2018-04-22T20:15:24.986Z,46.60
2018-04-22T20:17:52.873Z,47.10
2018-04-22T20:20:20.793Z,47.20
2018-04-22T20:22:49.442Z,48.00
2018-04-22T20:25:17.387Z,48.00
2018-04-22T20:27:45.338Z,47.90
2018-04-22T20:30:13.235Z,47.50
2018-04-22T20:32:41.172Z,47.90
2018-04-22T20:35:09.028Z,48.40
2018-04-22T20:37:36.840Z,48.80
2018-04-22T20:40:04.671Z,49.40
2018-04-22T20:42:32.618Z,49.70
2018-04-22T20:45:00.445Z,49.80
2018-04-22T20:47:28.381Z,49.90
2018-04-22T20:49:56.388Z,49.90
2018-04-22T20:52:24.266Z,50.00
2018-04-22T20:54:52.138Z,50.10
2018-04-22T20:57:20.030Z,50.70
2018-04-22T20:59:47.876Z,51.60
2018-04-22T21:02:16.428Z,53.40
2018-04-22T21:04:44.283Z,52.90
2018-04-22T21:07:12.193Z,52.60
2018-04-22T21:09:40.813Z,53.10
2018-04-22T21:12:08.904Z,53.00
2018-04-22T21:14:36.804Z,53.40
2018-04-22T21:17:04.679Z,53.50
2018-04-22T21:19:33.369Z,55.00
2018-04-22T21:22:01.957Z,55.20
2018-04-22T21:24:30.549Z,55.30
2018-04-22T21:26:59.233Z,55.00
2018-04-22T21:29:27.878Z,56.30
2018-04-22T21:31:55.691Z,56.20
2018-04-22T21:34:33.193Z,56.90
2018-04-22T21:37:01.100Z,56.50
2018-04-22T21:39:30.064Z,57.50
2018-04-22T21:42:00.784Z,57.70
2018-04-22T21:44:28.608Z,58.20
2018-04-22T21:46:56.455Z,58.30
2018-04-22T21:49:24.388Z,58.50
2018-04-22T21:51:52.251Z,58.70
2018-04-22T21:54:21.080Z,59.30
2018-04-22T21:56:49.043Z,59.30
2018-04-22T21:59:17.007Z,59.90
2018-04-22T22:01:44.879Z,60.50
2018-04-22T22:04:12.799Z,62.90
2018-04-22T22:06:41.407Z,65.20
2018-04-22T22:09:09.250Z,65.30
2018-04-22T22:11:37.915Z,65.60
2018-04-22T22:14:05.763Z,65.60
2018-04-22T22:16:33.697Z,66.80
2018-04-22T22:19:01.626Z,66.90
2018-04-22T22:21:29.474Z,68.40
2018-04-22T22:23:57.352Z,68.40
2018-04-22T22:26:25.570Z,68.90
2018-04-22T22:28:53.354Z,69.60
2018-04-22T22:31:22.039Z,70.00
2018-04-22T22:33:49.986Z,69.80
2018-04-22T22:36:17.804Z,70.20
2018-04-22T22:38:45.720Z,71.40
2018-04-22T22:41:13.627Z,71.00
2018-04-22T22:43:41.518Z,70.60
2018-04-22T22:46:09.454Z,71.60
2018-04-22T22:48:37.421Z,71.20
2018-04-22T22:51:05.315Z,72.50
2018-04-22T22:53:33.102Z,72.10
2018-04-22T22:56:01.766Z,72.40
2018-04-22T22:58:29.782Z,72.40
2018-04-22T23:00:57.699Z,73.50
2018-04-22T23:03:25.611Z,74.20
2018-04-22T23:05:54.267Z,76.10
2018-04-22T23:08:22.034Z,76.10
2018-04-22T23:10:49.931Z,76.00
2018-04-22T23:13:17.811Z,76.30
2018-04-22T23:15:45.662Z,76.10
2018-04-22T23:18:13.626Z,76.50
2018-04-22T23:20:42.276Z,78.70
2018-04-22T23:23:10.135Z,78.70
2018-04-22T23:25:37.987Z,79.20
2018-04-22T23:28:05.830Z,80.10
2018-04-22T23:30:33.719Z,81.00
2018-04-22T23:33:01.684Z,81.70
2018-04-22T23:35:29.551Z,82.20
2018-04-22T23:37:57.387Z,83.10
2018-04-22T23:40:25.982Z,83.10
2018-04-22T23:42:53.795Z,83.00
2018-04-22T23:45:21.687Z,82.80
2018-04-22T23:47:49.660Z,82.20
2018-04-22T23:50:18.362Z,83.20
2018-04-22T23:52:46.195Z,83.20
2018-04-22T23:55:14.051Z,83.10
2018-04-22T23:57:41.884Z,82.90
